sensor_id;sensor_type;location;lat;lon;timestamp;P1;durP1;ratioP1;P2;durP2;ratioP2
44120;SDS011;29783;52.504;13.478;2023-07-22T00:01:49;6.15;;;5.38;;
44120;SDS011;29783;52.504;13.478;2023-07-22T00:04:14;9.68;;;5.93;;
44120;SDS011;29783;52.504;13.478;2023-07-22T00:06:40;10.38;;;6.85;;
44120;SDS011;29783;52.504;13.478;2023-07-22T00:09:10;7.97;;;6.30;;
44120;SDS011;29783;52.504;13.478;2023-07-22T00:11:35;11.00;;;6.43;;
44120;SDS011;29783;52.504;13.478;2023-07-22T00:14:01;6.93;;;6.15;;
44120;SDS011;29783;52.504;13.478;2023-07-22T00:16:27;8.25;;;6.00;;
44120;SDS011;29783;52.504;13.478;2023-07-22T00:18:54;6.50;;;5.78;;
44120;SDS011;29783;52.504;13.478;2023-07-22T00:21:20;14.15;;;5.93;;
44120;SDS011;29783;52.504;13.478;2023-07-22T00:23:45;7.30;;;4.90;;
44120;SDS011;29783;52.504;13.478;2023-07-22T00:26:11;6.25;;;4.75;;
44120;SDS011;29783;52.504;13.478;2023-07-22T00:28:37;4.70;;;4.30;;
44120;SDS011;29783;52.504;13.478;2023-07-22T00:31:02;6.00;;;3.83;;
44120;SDS011;29783;52.504;13.478;2023-07-22T00:33:29;5.65;;;4.40;;
44120;SDS011;29783;52.504;13.478;2023-07-22T00:35:56;5.97;;;3.90;;
44120;SDS011;29783;52.504;13.478;2023-07-22T00:38:21;7.72;;;4.10;;
44120;SDS011;29783;52.504;13.478;2023-07-22T00:40:47;6.50;;;4.20;;
44120;SDS011;29783;52.504;13.478;2023-07-22T00:43:13;5.50;;;4.03;;
44120;SDS011;29783;52.504;13.478;2023-07-22T00:45:38;8.48;;;3.78;;
44120;SDS011;29783;52.504;13.478;2023-07-22T00:48:04;6.20;;;3.80;;
44120;SDS011;29783;52.504;13.478;2023-07-22T00:50:31;5.80;;;3.95;;
44120;SDS011;29783;52.504;13.478;2023-07-22T00:52:58;6.95;;;4.07;;
44120;SDS011;29783;52.504;13.478;2023-07-22T00:55:25;6.70;;;3.83;;
44120;SDS011;29783;52.504;13.478;2023-07-22T00:57:51;6.22;;;4.28;;
44120;SDS011;29783;52.504;13.478;2023-07-22T01:00:17;5.97;;;4.10;;
44120;SDS011;29783;52.504;13.478;2023-07-22T01:02:42;5.90;;;4.28;;
44120;SDS011;29783;52.504;13.478;2023-07-22T01:05:09;5.57;;;4.50;;
44120;SDS011;29783;52.504;13.478;2023-07-22T01:07:37;5.05;;;4.60;;
44120;SDS011;29783;52.504;13.478;2023-07-22T01:10:06;4.90;;;4.40;;
44120;SDS011;29783;52.504;13.478;2023-07-22T01:12:33;7.50;;;4.72;;
44120;SDS011;29783;52.504;13.478;2023-07-22T01:14:58;7.05;;;4.43;;
44120;SDS011;29783;52.504;13.478;2023-07-22T01:17:25;5.57;;;4.50;;
44120;SDS011;29783;52.504;13.478;2023-07-22T01:19:52;5.13;;;4.32;;
44120;SDS011;29783;52.504;13.478;2023-07-22T01:22:19;5.63;;;4.45;;
44120;SDS011;29783;52.504;13.478;2023-07-22T01:24:46;4.60;;;4.18;;
44120;SDS011;29783;52.504;13.478;2023-07-22T01:27:12;5.60;;;4.70;;
44120;SDS011;29783;52.504;13.478;2023-07-22T01:29:39;6.85;;;5.00;;
44120;SDS011;29783;52.504;13.478;2023-07-22T01:32:05;5.22;;;4.70;;
44120;SDS011;29783;52.504;13.478;2023-07-22T01:34:31;6.43;;;4.22;;
44120;SDS011;29783;52.504;13.478;2023-07-22T01:36:58;4.78;;;4.32;;
44120;SDS011;29783;52.504;13.478;2023-07-22T01:39:25;9.35;;;5.03;;
44120;SDS011;29783;52.504;13.478;2023-07-22T01:41:50;6.38;;;4.70;;
44120;SDS011;29783;52.504;13.478;2023-07-22T01:44:16;8.35;;;4.72;;
44120;SDS011;29783;52.504;13.478;2023-07-22T01:46:41;5.68;;;4.78;;
44120;SDS011;29783;52.504;13.478;2023-07-22T01:49:09;5.57;;;4.63;;
44120;SDS011;29783;52.504;13.478;2023-07-22T01:51:37;7.50;;;4.80;;
44120;SDS011;29783;52.504;13.478;2023-07-22T01:54:04;6.97;;;4.10;;
44120;SDS011;29783;52.504;13.478;2023-07-22T01:56:30;6.70;;;4.07;;
44120;SDS011;29783;52.504;13.478;2023-07-22T01:58:56;5.13;;;4.28;;
44120;SDS011;29783;52.504;13.478;2023-07-22T02:01:21;6.43;;;4.45;;
44120;SDS011;29783;52.504;13.478;2023-07-22T02:03:47;6.05;;;4.65;;
44120;SDS011;29783;52.504;13.478;2023-07-22T02:06:13;8.68;;;4.72;;
44120;SDS011;29783;52.504;13.478;2023-07-22T02:08:38;9.20;;;4.57;;
44120;SDS011;29783;52.504;13.478;2023-07-22T02:11:05;5.47;;;4.40;;
44120;SDS011;29783;52.504;13.478;2023-07-22T02:13:32;6.45;;;4.05;;
44120;SDS011;29783;52.504;13.478;2023-07-22T02:15:59;7.28;;;4.25;;
44120;SDS011;29783;52.504;13.478;2023-07-22T02:18:25;7.97;;;4.03;;
44120;SDS011;29783;52.504;13.478;2023-07-22T02:20:51;4.88;;;4.38;;
44120;SDS011;29783;52.504;13.478;2023-07-22T02:23:17;5.07;;;3.20;;
44120;SDS011;29783;52.504;13.478;2023-07-22T02:25:43;9.27;;;3.38;;
44120;SDS011;29783;52.504;13.478;2023-07-22T02:28:14;4.68;;;4.10;;
44120;SDS011;29783;52.504;13.478;2023-07-22T02:30:40;4.35;;;3.70;;
44120;SDS011;29783;52.504;13.478;2023-07-22T02:33:06;8.27;;;4.18;;
44120;SDS011;29783;52.504;13.478;2023-07-22T02:35:34;7.18;;;3.70;;
44120;SDS011;29783;52.504;13.478;2023-07-22T02:38:00;9.38;;;3.40;;
44120;SDS011;29783;52.504;13.478;2023-07-22T02:40:27;3.65;;;3.30;;
44120;SDS011;29783;52.504;13.478;2023-07-22T02:42:53;4.30;;;2.67;;
44120;SDS011;29783;52.504;13.478;2023-07-22T02:45:18;4.80;;;3.35;;
44120;SDS011;29783;52.504;13.478;2023-07-22T02:47:44;3.92;;;3.15;;
44120;SDS011;29783;52.504;13.478;2023-07-22T02:50:10;3.92;;;2.85;;
44120;SDS011;29783;52.504;13.478;2023-07-22T02:52:35;5.95;;;3.45;;
44120;SDS011;29783;52.504;13.478;2023-07-22T02:57:31;9.55;;;4.00;;
44120;SDS011;29783;52.504;13.478;2023-07-22T02:59:57;8.40;;;3.90;;
44120;SDS011;29783;52.504;13.478;2023-07-22T03:02:23;4.50;;;3.03;;
44120;SDS011;29783;52.504;13.478;2023-07-22T03:04:48;8.05;;;3.65;;
44120;SDS011;29783;52.504;13.478;2023-07-22T03:07:14;4.47;;;3.45;;
44120;SDS011;29783;52.504;13.478;2023-07-22T03:09:40;5.57;;;3.17;;
44120;SDS011;29783;52.504;13.478;2023-07-22T03:12:06;5.30;;;3.35;;
44120;SDS011;29783;52.504;13.478;2023-07-22T03:14:32;5.07;;;3.20;;
44120;SDS011;29783;52.504;13.478;2023-07-22T03:17:02;3.38;;;2.60;;
44120;SDS011;29783;52.504;13.478;2023-07-22T03:19:28;3.92;;;2.78;;
44120;SDS011;29783;52.504;13.478;2023-07-22T03:21:54;6.50;;;3.30;;
44120;SDS011;29783;52.504;13.478;2023-07-22T03:24:20;3.55;;;3.22;;
44120;SDS011;29783;52.504;13.478;2023-07-22T03:26:46;8.00;;;3.50;;
44120;SDS011;29783;52.504;13.478;2023-07-22T03:29:11;4.32;;;2.90;;
44120;SDS011;29783;52.504;13.478;2023-07-22T03:31:37;5.20;;;3.03;;
44120;SDS011;29783;52.504;13.478;2023-07-22T03:34:04;5.47;;;3.10;;
44120;SDS011;29783;52.504;13.478;2023-07-22T03:36:30;2.97;;;2.67;;
44120;SDS011;29783;52.504;13.478;2023-07-22T03:38:58;12.40;;;3.20;;
44120;SDS011;29783;52.504;13.478;2023-07-22T03:41:25;4.55;;;2.85;;
44120;SDS011;29783;52.504;13.478;2023-07-22T03:43:50;4.68;;;2.83;;
44120;SDS011;29783;52.504;13.478;2023-07-22T03:46:16;3.83;;;3.15;;
44120;SDS011;29783;52.504;13.478;2023-07-22T03:48:43;6.45;;;3.50;;
44120;SDS011;29783;52.504;13.478;2023-07-22T03:51:08;3.45;;;2.85;;
44120;SDS011;29783;52.504;13.478;2023-07-22T03:53:34;4.97;;;3.28;;
44120;SDS011;29783;52.504;13.478;2023-07-22T03:56:02;5.97;;;3.50;;
44120;SDS011;29783;52.504;13.478;2023-07-22T03:58:28;6.22;;;3.08;;
44120;SDS011;29783;52.504;13.478;2023-07-22T04:00:54;6.45;;;3.03;;
44120;SDS011;29783;52.504;13.478;2023-07-22T04:03:19;5.15;;;3.20;;
44120;SDS011;29783;52.504;13.478;2023-07-22T04:05:52;4.32;;;2.97;;
44120;SDS011;29783;52.504;13.478;2023-07-22T04:08:19;5.68;;;3.08;;
44120;SDS011;29783;52.504;13.478;2023-07-22T04:10:51;9.50;;;3.40;;
44120;SDS011;29783;52.504;13.478;2023-07-22T04:13:17;4.78;;;3.35;;
44120;SDS011;29783;52.504;13.478;2023-07-22T04:15:43;10.32;;;3.38;;
44120;SDS011;29783;52.504;13.478;2023-07-22T04:18:09;6.32;;;3.20;;
44120;SDS011;29783;52.504;13.478;2023-07-22T04:20:35;5.57;;;2.72;;
44120;SDS011;29783;52.504;13.478;2023-07-22T04:23:02;7.03;;;3.05;;
44120;SDS011;29783;52.504;13.478;2023-07-22T04:25:27;7.50;;;2.78;;
44120;SDS011;29783;52.504;13.478;2023-07-22T04:27:53;4.10;;;2.83;;
44120;SDS011;29783;52.504;13.478;2023-07-22T04:30:18;8.68;;;3.75;;
44120;SDS011;29783;52.504;13.478;2023-07-22T04:32:49;5.95;;;3.00;;
44120;SDS011;29783;52.504;13.478;2023-07-22T04:35:18;5.85;;;3.35;;
44120;SDS011;29783;52.504;13.478;2023-07-22T04:37:44;5.85;;;3.35;;
44120;SDS011;29783;52.504;13.478;2023-07-22T04:40:12;5.20;;;2.83;;
44120;SDS011;29783;52.504;13.478;2023-07-22T04:42:43;4.90;;;2.97;;
44120;SDS011;29783;52.504;13.478;2023-07-22T04:45:09;4.55;;;3.35;;
44120;SDS011;29783;52.504;13.478;2023-07-22T04:47:39;5.90;;;2.92;;
44120;SDS011;29783;52.504;13.478;2023-07-22T04:50:06;14.65;;;3.33;;
44120;SDS011;29783;52.504;13.478;2023-07-22T04:52:34;4.63;;;2.90;;
44120;SDS011;29783;52.504;13.478;2023-07-22T04:55:03;4.75;;;3.20;;
44120;SDS011;29783;52.504;13.478;2023-07-22T04:57:34;7.38;;;3.13;;
44120;SDS011;29783;52.504;13.478;2023-07-22T05:00:01;11.82;;;3.45;;
44120;SDS011;29783;52.504;13.478;2023-07-22T05:02:31;5.88;;;3.53;;
44120;SDS011;29783;52.504;13.478;2023-07-22T05:04:57;8.38;;;3.78;;
44120;SDS011;29783;52.504;13.478;2023-07-22T05:07:23;4.45;;;3.22;;
44120;SDS011;29783;52.504;13.478;2023-07-22T05:09:49;4.65;;;3.30;;
44120;SDS011;29783;52.504;13.478;2023-07-22T05:12:16;8.65;;;3.97;;
44120;SDS011;29783;52.504;13.478;2023-07-22T05:14:44;8.27;;;4.15;;
44120;SDS011;29783;52.504;13.478;2023-07-22T05:17:10;9.50;;;3.90;;
44120;SDS011;29783;52.504;13.478;2023-07-22T05:19:36;7.43;;;4.47;;
44120;SDS011;29783;52.504;13.478;2023-07-22T05:22:01;9.90;;;4.72;;
44120;SDS011;29783;52.504;13.478;2023-07-22T05:24:27;7.90;;;3.90;;
44120;SDS011;29783;52.504;13.478;2023-07-22T05:26:53;5.88;;;4.45;;
44120;SDS011;29783;52.504;13.478;2023-07-22T05:29:19;5.68;;;3.95;;
44120;SDS011;29783;52.504;13.478;2023-07-22T05:31:44;6.80;;;4.80;;
44120;SDS011;29783;52.504;13.478;2023-07-22T05:34:11;8.45;;;5.05;;
44120;SDS011;29783;52.504;13.478;2023-07-22T05:36:37;10.40;;;5.28;;
44120;SDS011;29783;52.504;13.478;2023-07-22T05:39:03;8.38;;;5.25;;
44120;SDS011;29783;52.504;13.478;2023-07-22T05:41:28;16.02;;;5.07;;
44120;SDS011;29783;52.504;13.478;2023-07-22T05:43:54;8.50;;;4.80;;
44120;SDS011;29783;52.504;13.478;2023-07-22T05:46:21;7.63;;;5.43;;
44120;SDS011;29783;52.504;13.478;2023-07-22T05:48:47;7.63;;;5.38;;
44120;SDS011;29783;52.504;13.478;2023-07-22T05:51:12;9.40;;;5.80;;
44120;SDS011;29783;52.504;13.478;2023-07-22T05:53:40;9.70;;;5.65;;
44120;SDS011;29783;52.504;13.478;2023-07-22T05:56:05;8.63;;;5.57;;
44120;SDS011;29783;52.504;13.478;2023-07-22T05:58:31;12.02;;;6.35;;
44120;SDS011;29783;52.504;13.478;2023-07-22T06:00:57;8.13;;;5.50;;
44120;SDS011;29783;52.504;13.478;2023-07-22T06:03:22;7.82;;;5.82;;
44120;SDS011;29783;52.504;13.478;2023-07-22T06:05:48;15.23;;;6.72;;
44120;SDS011;29783;52.504;13.478;2023-07-22T06:08:14;9.85;;;5.97;;
44120;SDS011;29783;52.504;13.478;2023-07-22T06:10:40;7.60;;;6.00;;
44120;SDS011;29783;52.504;13.478;2023-07-22T06:13:06;9.27;;;5.00;;
44120;SDS011;29783;52.504;13.478;2023-07-22T06:15:32;8.95;;;5.75;;
44120;SDS011;29783;52.504;13.478;2023-07-22T06:17:58;12.45;;;6.07;;
44120;SDS011;29783;52.504;13.478;2023-07-22T06:20:24;8.07;;;5.63;;
44120;SDS011;29783;52.504;13.478;2023-07-22T06:22:51;8.85;;;4.90;;
44120;SDS011;29783;52.504;13.478;2023-07-22T06:25:17;7.85;;;5.55;;
44120;SDS011;29783;52.504;13.478;2023-07-22T06:27:43;11.57;;;6.53;;
44120;SDS011;29783;52.504;13.478;2023-07-22T06:30:09;7.55;;;5.25;;
44120;SDS011;29783;52.504;13.478;2023-07-22T06:32:38;7.07;;;5.43;;
44120;SDS011;29783;52.504;13.478;2023-07-22T06:35:04;11.75;;;6.18;;
44120;SDS011;29783;52.504;13.478;2023-07-22T06:37:30;11.43;;;5.80;;
44120;SDS011;29783;52.504;13.478;2023-07-22T06:39:56;8.25;;;5.35;;
44120;SDS011;29783;52.504;13.478;2023-07-22T06:42:22;14.20;;;5.25;;
44120;SDS011;29783;52.504;13.478;2023-07-22T06:44:47;5.50;;;4.30;;
44120;SDS011;29783;52.504;13.478;2023-07-22T06:47:13;12.00;;;5.07;;
44120;SDS011;29783;52.504;13.478;2023-07-22T06:49:39;5.63;;;3.70;;
44120;SDS011;29783;52.504;13.478;2023-07-22T06:52:06;8.25;;;4.95;;
44120;SDS011;29783;52.504;13.478;2023-07-22T06:54:32;8.70;;;4.88;;
44120;SDS011;29783;52.504;13.478;2023-07-22T06:56:59;9.82;;;5.25;;
44120;SDS011;29783;52.504;13.478;2023-07-22T06:59:24;9.25;;;4.63;;
44120;SDS011;29783;52.504;13.478;2023-07-22T07:01:51;14.95;;;4.30;;
44120;SDS011;29783;52.504;13.478;2023-07-22T07:04:17;7.18;;;4.05;;
44120;SDS011;29783;52.504;13.478;2023-07-22T07:06:42;6.90;;;4.45;;
44120;SDS011;29783;52.504;13.478;2023-07-22T07:09:10;13.25;;;4.50;;
44120;SDS011;29783;52.504;13.478;2023-07-22T07:11:36;7.78;;;4.07;;
44120;SDS011;29783;52.504;13.478;2023-07-22T07:14:02;6.30;;;3.22;;
44120;SDS011;29783;52.504;13.478;2023-07-22T07:16:30;7.85;;;3.78;;
44120;SDS011;29783;52.504;13.478;2023-07-22T07:18:56;6.13;;;3.40;;
44120;SDS011;29783;52.504;13.478;2023-07-22T07:21:25;9.27;;;3.58;;
44120;SDS011;29783;52.504;13.478;2023-07-22T07:23:52;12.90;;;3.33;;
44120;SDS011;29783;52.504;13.478;2023-07-22T07:26:18;4.15;;;2.40;;
44120;SDS011;29783;52.504;13.478;2023-07-22T07:28:44;5.97;;;2.42;;
44120;SDS011;29783;52.504;13.478;2023-07-22T07:31:11;9.73;;;3.60;;
44120;SDS011;29783;52.504;13.478;2023-07-22T07:33:37;7.55;;;3.38;;
44120;SDS011;29783;52.504;13.478;2023-07-22T07:36:02;11.40;;;3.70;;
44120;SDS011;29783;52.504;13.478;2023-07-22T07:38:28;7.97;;;2.97;;
44120;SDS011;29783;52.504;13.478;2023-07-22T07:40:58;7.30;;;3.10;;
44120;SDS011;29783;52.504;13.478;2023-07-22T07:43:28;6.05;;;3.05;;
44120;SDS011;29783;52.504;13.478;2023-07-22T07:48:44;5.35;;;3.50;;
44120;SDS011;29783;52.504;13.478;2023-07-22T07:51:11;6.05;;;3.40;;
44120;SDS011;29783;52.504;13.478;2023-07-22T07:53:39;5.72;;;3.30;;
44120;SDS011;29783;52.504;13.478;2023-07-22T07:56:04;10.48;;;3.13;;
44120;SDS011;29783;52.504;13.478;2023-07-22T07:58:30;6.05;;;3.55;;
44120;SDS011;29783;52.504;13.478;2023-07-22T08:00:56;6.18;;;2.92;;
44120;SDS011;29783;52.504;13.478;2023-07-22T08:03:22;6.65;;;3.30;;
44120;SDS011;29783;52.504;13.478;2023-07-22T08:05:47;10.23;;;2.90;;
44120;SDS011;29783;52.504;13.478;2023-07-22T08:08:13;6.78;;;3.78;;
44120;SDS011;29783;52.504;13.478;2023-07-22T08:10:38;6.93;;;3.85;;
44120;SDS011;29783;52.504;13.478;2023-07-22T08:13:05;8.65;;;3.67;;
44120;SDS011;29783;52.504;13.478;2023-07-22T08:15:31;7.60;;;3.90;;
44120;SDS011;29783;52.504;13.478;2023-07-22T08:17:57;5.03;;;3.00;;
44120;SDS011;29783;52.504;13.478;2023-07-22T08:20:22;9.57;;;3.65;;
44120;SDS011;29783;52.504;13.478;2023-07-22T08:22:48;6.50;;;3.45;;
44120;SDS011;29783;52.504;13.478;2023-07-22T08:25:14;13.35;;;3.55;;
44120;SDS011;29783;52.504;13.478;2023-07-22T08:27:39;7.55;;;3.80;;
44120;SDS011;29783;52.504;13.478;2023-07-22T08:30:06;6.35;;;3.70;;
44120;SDS011;29783;52.504;13.478;2023-07-22T08:32:32;8.05;;;3.40;;
44120;SDS011;29783;52.504;13.478;2023-07-22T08:34:58;5.00;;;3.38;;
44120;SDS011;29783;52.504;13.478;2023-07-22T08:37:24;6.18;;;3.70;;
44120;SDS011;29783;52.504;13.478;2023-07-22T08:39:50;5.45;;;3.42;;
44120;SDS011;29783;52.504;13.478;2023-07-22T08:42:15;6.05;;;2.95;;
44120;SDS011;29783;52.504;13.478;2023-07-22T08:44:44;6.45;;;2.85;;
44120;SDS011;29783;52.504;13.478;2023-07-22T08:47:15;6.18;;;3.47;;
44120;SDS011;29783;52.504;13.478;2023-07-22T08:49:45;10.25;;;3.20;;
44120;SDS011;29783;52.504;13.478;2023-07-22T08:52:15;5.82;;;2.13;;
44120;SDS011;29783;52.504;13.478;2023-07-22T08:54:42;5.60;;;3.50;;
44120;SDS011;29783;52.504;13.478;2023-07-22T08:57:09;5.90;;;3.50;;
44120;SDS011;29783;52.504;13.478;2023-07-22T08:59:36;11.48;;;3.63;;
44120;SDS011;29783;52.504;13.478;2023-07-22T09:02:03;3.97;;;2.45;;
44120;SDS011;29783;52.504;13.478;2023-07-22T09:04:30;6.95;;;3.28;;
44120;SDS011;29783;52.504;13.478;2023-07-22T09:06:56;5.47;;;3.70;;
44120;SDS011;29783;52.504;13.478;2023-07-22T09:09:22;4.75;;;2.65;;
44120;SDS011;29783;52.504;13.478;2023-07-22T09:11:50;5.25;;;3.75;;
44120;SDS011;29783;52.504;13.478;2023-07-22T09:14:17;7.82;;;3.60;;
44120;SDS011;29783;52.504;13.478;2023-07-22T09:16:44;5.22;;;3.45;;
44120;SDS011;29783;52.504;13.478;2023-07-22T09:19:09;6.47;;;3.50;;
44120;SDS011;29783;52.504;13.478;2023-07-22T09:21:35;6.60;;;3.45;;
44120;SDS011;29783;52.504;13.478;2023-07-22T09:24:01;7.55;;;2.47;;
44120;SDS011;29783;52.504;13.478;2023-07-22T09:26:28;7.38;;;3.40;;
44120;SDS011;29783;52.504;13.478;2023-07-22T09:28:59;5.97;;;2.92;;
44120;SDS011;29783;52.504;13.478;2023-07-22T09:31:26;5.70;;;3.08;;
44120;SDS011;29783;52.504;13.478;2023-07-22T09:33:53;10.63;;;3.30;;
44120;SDS011;29783;52.504;13.478;2023-07-22T09:36:19;5.40;;;3.30;;
44120;SDS011;29783;52.504;13.478;2023-07-22T09:38:45;7.32;;;3.20;;
44120;SDS011;29783;52.504;13.478;2023-07-22T09:41:27;5.60;;;2.90;;
44120;SDS011;29783;52.504;13.478;2023-07-22T09:43:55;5.22;;;3.10;;
44120;SDS011;29783;52.504;13.478;2023-07-22T09:46:21;7.03;;;3.30;;
44120;SDS011;29783;52.504;13.478;2023-07-22T09:48:57;6.25;;;2.72;;
44120;SDS011;29783;52.504;13.478;2023-07-22T09:51:27;7.43;;;3.30;;
44120;SDS011;29783;52.504;13.478;2023-07-22T09:54:00;5.18;;;2.85;;
44120;SDS011;29783;52.504;13.478;2023-07-22T09:56:26;5.15;;;2.92;;
44120;SDS011;29783;52.504;13.478;2023-07-22T09:58:52;6.43;;;3.10;;
44120;SDS011;29783;52.504;13.478;2023-07-22T10:01:19;3.15;;;2.47;;
44120;SDS011;29783;52.504;13.478;2023-07-22T10:03:49;4.32;;;2.70;;
44120;SDS011;29783;52.504;13.478;2023-07-22T10:06:20;11.00;;;2.20;;
44120;SDS011;29783;52.504;13.478;2023-07-22T10:08:57;4.00;;;2.83;;
44120;SDS011;29783;52.504;13.478;2023-07-22T10:11:33;4.30;;;2.70;;
44120;SDS011;29783;52.504;13.478;2023-07-22T10:14:00;4.63;;;2.45;;
44120;SDS011;29783;52.504;13.478;2023-07-22T10:16:27;4.82;;;2.72;;
44120;SDS011;29783;52.504;13.478;2023-07-22T10:18:54;5.07;;;3.08;;
44120;SDS011;29783;52.504;13.478;2023-07-22T10:21:21;4.82;;;3.10;;
44120;SDS011;29783;52.504;13.478;2023-07-22T10:23:48;5.97;;;2.75;;
44120;SDS011;29783;52.504;13.478;2023-07-22T10:26:18;5.38;;;2.92;;
44120;SDS011;29783;52.504;13.478;2023-07-22T10:28:45;4.78;;;2.65;;
44120;SDS011;29783;52.504;13.478;2023-07-22T10:31:12;6.70;;;2.55;;
44120;SDS011;29783;52.504;13.478;2023-07-22T10:33:48;8.60;;;2.78;;
44120;SDS011;29783;52.504;13.478;2023-07-22T10:36:14;9.15;;;2.95;;
44120;SDS011;29783;52.504;13.478;2023-07-22T10:38:41;4.82;;;2.90;;
44120;SDS011;29783;52.504;13.478;2023-07-22T10:41:13;4.88;;;2.85;;
44120;SDS011;29783;52.504;13.478;2023-07-22T10:43:53;4.10;;;2.70;;
44120;SDS011;29783;52.504;13.478;2023-07-22T10:46:30;4.53;;;2.58;;
44120;SDS011;29783;52.504;13.478;2023-07-22T10:51:41;5.65;;;2.33;;
44120;SDS011;29783;52.504;13.478;2023-07-22T10:54:13;16.48;;;2.75;;
44120;SDS011;29783;52.504;13.478;2023-07-22T10:56:43;4.53;;;2.80;;
44120;SDS011;29783;52.504;13.478;2023-07-22T10:59:10;5.47;;;3.03;;
44120;SDS011;29783;52.504;13.478;2023-07-22T11:01:37;7.57;;;2.88;;
44120;SDS011;29783;52.504;13.478;2023-07-22T11:14:23;6.18;;;3.42;;
44120;SDS011;29783;52.504;13.478;2023-07-22T11:16:51;7.13;;;3.50;;
44120;SDS011;29783;52.504;13.478;2023-07-22T11:19:19;4.78;;;2.80;;
44120;SDS011;29783;52.504;13.478;2023-07-22T11:21:46;9.20;;;3.03;;
44120;SDS011;29783;52.504;13.478;2023-07-22T11:24:12;5.00;;;3.30;;
44120;SDS011;29783;52.504;13.478;2023-07-22T11:26:39;4.38;;;2.90;;
44120;SDS011;29783;52.504;13.478;2023-07-22T11:29:05;3.70;;;3.30;;
44120;SDS011;29783;52.504;13.478;2023-07-22T11:31:33;12.25;;;3.20;;
44120;SDS011;29783;52.504;13.478;2023-07-22T11:34:03;8.43;;;4.05;;
44120;SDS011;29783;52.504;13.478;2023-07-22T11:36:29;12.15;;;3.70;;
44120;SDS011;29783;52.504;13.478;2023-07-22T11:39:05;10.57;;;3.58;;
44120;SDS011;29783;52.504;13.478;2023-07-22T11:41:33;4.13;;;3.00;;
44120;SDS011;29783;52.504;13.478;2023-07-22T11:44:00;3.72;;;3.38;;
44120;SDS011;29783;52.504;13.478;2023-07-22T11:46:27;5.95;;;3.35;;
44120;SDS011;29783;52.504;13.478;2023-07-22T11:48:53;4.35;;;3.45;;
44120;SDS011;29783;52.504;13.478;2023-07-22T11:51:21;8.77;;;3.00;;
44120;SDS011;29783;52.504;13.478;2023-07-22T11:53:48;3.80;;;2.97;;
44120;SDS011;29783;52.504;13.478;2023-07-22T11:56:19;8.23;;;3.75;;
44120;SDS011;29783;52.504;13.478;2023-07-22T11:58:56;4.53;;;3.65;;
44120;SDS011;29783;52.504;13.478;2023-07-22T12:01:23;6.13;;;3.53;;
44120;SDS011;29783;52.504;13.478;2023-07-22T12:03:57;4.40;;;3.10;;
44120;SDS011;29783;52.504;13.478;2023-07-22T12:06:26;8.57;;;3.53;;
44120;SDS011;29783;52.504;13.478;2023-07-22T12:08:53;6.60;;;3.53;;
44120;SDS011;29783;52.504;13.478;2023-07-22T12:11:20;5.72;;;3.40;;
44120;SDS011;29783;52.504;13.478;2023-07-22T12:14:04;5.30;;;3.78;;
44120;SDS011;29783;52.504;13.478;2023-07-22T12:16:29;8.57;;;3.38;;
44120;SDS011;29783;52.504;13.478;2023-07-22T12:18:55;4.28;;;3.03;;
44120;SDS011;29783;52.504;13.478;2023-07-22T12:21:21;4.30;;;3.10;;
44120;SDS011;29783;52.504;13.478;2023-07-22T12:23:47;3.60;;;2.88;;
44120;SDS011;29783;52.504;13.478;2023-07-22T12:26:13;2.63;;;1.63;;
44120;SDS011;29783;52.504;13.478;2023-07-22T12:28:38;8.52;;;2.63;;
44120;SDS011;29783;52.504;13.478;2023-07-22T12:31:04;3.40;;;2.63;;
44120;SDS011;29783;52.504;13.478;2023-07-22T12:33:30;3.20;;;2.65;;
44120;SDS011;29783;52.504;13.478;2023-07-22T12:35:56;4.18;;;3.03;;
44120;SDS011;29783;52.504;13.478;2023-07-22T12:38:22;5.57;;;3.22;;
44120;SDS011;29783;52.504;13.478;2023-07-22T12:40:48;5.55;;;3.60;;
44120;SDS011;29783;52.504;13.478;2023-07-22T12:43:14;4.78;;;3.40;;
44120;SDS011;29783;52.504;13.478;2023-07-22T12:45:40;4.35;;;3.20;;
44120;SDS011;29783;52.504;13.478;2023-07-22T12:48:06;4.95;;;2.53;;
44120;SDS011;29783;52.504;13.478;2023-07-22T12:50:32;3.90;;;2.92;;
44120;SDS011;29783;52.504;13.478;2023-07-22T12:53:01;4.53;;;2.92;;
44120;SDS011;29783;52.504;13.478;2023-07-22T12:55:28;4.88;;;3.03;;
44120;SDS011;29783;52.504;13.478;2023-07-22T12:57:53;4.43;;;2.80;;
44120;SDS011;29783;52.504;13.478;2023-07-22T13:00:19;3.42;;;2.63;;
44120;SDS011;29783;52.504;13.478;2023-07-22T13:02:44;8.18;;;3.20;;
44120;SDS011;29783;52.504;13.478;2023-07-22T13:05:10;4.45;;;3.00;;
44120;SDS011;29783;52.504;13.478;2023-07-22T13:07:36;4.95;;;3.28;;
44120;SDS011;29783;52.504;13.478;2023-07-22T13:10:04;7.35;;;3.17;;
44120;SDS011;29783;52.504;13.478;2023-07-22T13:12:34;5.72;;;3.58;;
44120;SDS011;29783;52.504;13.478;2023-07-22T13:14:59;3.55;;;3.15;;
44120;SDS011;29783;52.504;13.478;2023-07-22T13:17:25;5.75;;;3.25;;
44120;SDS011;29783;52.504;13.478;2023-07-22T13:19:51;7.43;;;3.40;;
44120;SDS011;29783;52.504;13.478;2023-07-22T13:22:16;4.95;;;3.20;;
44120;SDS011;29783;52.504;13.478;2023-07-22T13:24:42;10.95;;;3.30;;
44120;SDS011;29783;52.504;13.478;2023-07-22T13:27:08;9.07;;;2.63;;
44120;SDS011;29783;52.504;13.478;2023-07-22T13:29:33;3.28;;;2.97;;
44120;SDS011;29783;52.504;13.478;2023-07-22T13:31:59;4.82;;;2.85;;
44120;SDS011;29783;52.504;13.478;2023-07-22T13:34:25;4.55;;;3.20;;
44120;SDS011;29783;52.504;13.478;2023-07-22T13:36:50;4.72;;;3.38;;
44120;SDS011;29783;52.504;13.478;2023-07-22T13:39:16;4.43;;;3.17;;
44120;SDS011;29783;52.504;13.478;2023-07-22T13:41:42;5.28;;;3.70;;
44120;SDS011;29783;52.504;13.478;2023-07-22T13:44:08;7.32;;;3.53;;
44120;SDS011;29783;52.504;13.478;2023-07-22T13:46:33;5.90;;;3.42;;
44120;SDS011;29783;52.504;13.478;2023-07-22T13:48:59;4.85;;;3.10;;
44120;SDS011;29783;52.504;13.478;2023-07-22T13:51:24;8.45;;;2.55;;
44120;SDS011;29783;52.504;13.478;2023-07-22T13:53:50;3.95;;;3.08;;
44120;SDS011;29783;52.504;13.478;2023-07-22T13:56:17;4.57;;;2.70;;
44120;SDS011;29783;52.504;13.478;2023-07-22T13:58:44;3.80;;;3.08;;
44120;SDS011;29783;52.504;13.478;2023-07-22T14:01:09;5.28;;;3.20;;
44120;SDS011;29783;52.504;13.478;2023-07-22T14:03:35;4.05;;;2.72;;
44120;SDS011;29783;52.504;13.478;2023-07-22T14:06:00;4.95;;;3.10;;
44120;SDS011;29783;52.504;13.478;2023-07-22T14:08:26;11.43;;;3.60;;
44120;SDS011;29783;52.504;13.478;2023-07-22T14:10:52;7.88;;;2.90;;
44120;SDS011;29783;52.504;13.478;2023-07-22T14:13:18;3.13;;;2.63;;
44120;SDS011;29783;52.504;13.478;2023-07-22T14:15:44;5.40;;;2.70;;
44120;SDS011;29783;52.504;13.478;2023-07-22T14:18:09;5.57;;;2.67;;
44120;SDS011;29783;52.504;13.478;2023-07-22T14:20:35;5.28;;;2.60;;
44120;SDS011;29783;52.504;13.478;2023-07-22T14:23:01;3.67;;;2.67;;
44120;SDS011;29783;52.504;13.478;2023-07-22T14:25:27;3.53;;;2.88;;
44120;SDS011;29783;52.504;13.478;2023-07-22T14:27:53;4.75;;;3.28;;
44120;SDS011;29783;52.504;13.478;2023-07-22T14:30:19;2.85;;;2.65;;
44120;SDS011;29783;52.504;13.478;2023-07-22T14:32:44;3.50;;;3.05;;
44120;SDS011;29783;52.504;13.478;2023-07-22T14:35:10;3.22;;;2.60;;
44120;SDS011;29783;52.504;13.478;2023-07-22T14:37:36;4.57;;;2.83;;
44120;SDS011;29783;52.504;13.478;2023-07-22T14:40:02;4.95;;;2.75;;
44120;SDS011;29783;52.504;13.478;2023-07-22T14:42:29;6.55;;;3.20;;
44120;SDS011;29783;52.504;13.478;2023-07-22T14:44:55;4.32;;;3.00;;
44120;SDS011;29783;52.504;13.478;2023-07-22T14:47:21;4.10;;;2.67;;
44120;SDS011;29783;52.504;13.478;2023-07-22T14:49:47;6.18;;;2.83;;